createdAt,value
2023-07-29T00:00:47.056Z,1.27
2023-07-29T00:03:13.884Z,1.27
2023-07-29T00:05:41.295Z,1.17
2023-07-29T00:08:07.909Z,1.00
2023-07-29T00:10:37.833Z,1.20
2023-07-29T00:13:05.486Z,1.05
2023-07-29T00:15:32.430Z,1.50
2023-07-29T00:17:59.220Z,1.00
2023-07-29T00:20:26.089Z,0.98
2023-07-29T00:22:55.031Z,1.25
2023-07-29T00:25:22.840Z,1.10
2023-07-29T00:27:49.503Z,1.35
2023-07-29T00:30:16.489Z,1.00
2023-07-29T00:32:43.161Z,1.42
2023-07-29T00:35:09.848Z,1.30
2023-07-29T00:37:38.837Z,1.10
2023-07-29T00:40:17.328Z,1.38
2023-07-29T00:42:44.166Z,1.08
2023-07-29T00:45:11.060Z,0.90
2023-07-29T00:47:38.795Z,1.33
2023-07-29T00:50:06.776Z,1.20
2023-07-29T00:52:33.650Z,1.15
2023-07-29T00:55:00.699Z,1.45
2023-07-29T00:57:27.755Z,1.20
2023-07-29T00:59:54.987Z,0.88
2023-07-29T01:02:21.707Z,1.75
2023-07-29T01:04:54.161Z,2.40
2023-07-29T01:07:36.564Z,2.13
2023-07-29T01:10:08.747Z,2.72
2023-07-29T01:12:48.516Z,1.65
2023-07-29T01:15:23.685Z,1.23
2023-07-29T01:17:54.163Z,1.10
2023-07-29T01:20:21.593Z,1.25
2023-07-29T01:22:48.481Z,1.20
2023-07-29T01:25:15.338Z,1.30
2023-07-29T01:27:44.373Z,1.50
2023-07-29T01:30:11.603Z,1.17
2023-07-29T01:32:47.262Z,0.88
2023-07-29T01:35:24.943Z,1.38
2023-07-29T01:37:56.737Z,1.52
2023-07-29T01:40:29.332Z,1.35
2023-07-29T01:42:57.227Z,1.38
2023-07-29T01:45:26.678Z,1.70
2023-07-29T01:47:53.530Z,2.13
2023-07-29T01:50:21.646Z,0.98
2023-07-29T01:52:48.326Z,1.63
2023-07-29T01:55:15.164Z,1.40
2023-07-29T01:57:41.849Z,1.33
2023-07-29T02:00:09.136Z,1.38
2023-07-29T02:02:42.038Z,1.52
2023-07-29T02:05:08.777Z,2.70
2023-07-29T02:07:35.387Z,2.40
2023-07-29T02:10:02.076Z,2.15
2023-07-29T02:12:28.786Z,2.10
2023-07-29T02:14:55.368Z,1.67
2023-07-29T02:17:22.195Z,1.42
2023-07-29T02:19:49.270Z,1.80
2023-07-29T02:22:18.472Z,1.48
2023-07-29T02:24:45.940Z,1.20
2023-07-29T02:27:12.756Z,1.90
2023-07-29T02:29:39.354Z,1.23
2023-07-29T02:32:06.028Z,2.03
2023-07-29T02:34:32.933Z,1.85
2023-07-29T02:36:59.657Z,2.58
2023-07-29T02:39:26.830Z,1.60
2023-07-29T02:41:53.715Z,2.17
2023-07-29T02:44:21.117Z,2.70
2023-07-29T02:46:47.778Z,1.17
2023-07-29T02:49:14.504Z,1.70
2023-07-29T02:51:41.354Z,1.55
2023-07-29T02:54:08.011Z,1.50
2023-07-29T02:56:35.005Z,1.48
2023-07-29T02:59:02.570Z,1.42
2023-07-29T03:01:30.903Z,1.27
2023-07-29T03:03:57.687Z,1.17
2023-07-29T03:06:24.968Z,1.83
2023-07-29T03:08:51.566Z,1.50
2023-07-29T03:11:18.331Z,1.73
2023-07-29T03:13:45.349Z,1.85
2023-07-29T03:16:16.977Z,1.50
2023-07-29T03:18:50.153Z,2.25
2023-07-29T03:21:16.793Z,2.17
2023-07-29T03:23:43.554Z,1.77
2023-07-29T03:26:13.059Z,1.15
2023-07-29T03:28:42.273Z,2.08
2023-07-29T03:31:09.366Z,1.63
2023-07-29T03:33:36.613Z,1.70
2023-07-29T03:36:03.223Z,1.33
2023-07-29T03:38:29.896Z,1.63
2023-07-29T03:40:57.413Z,1.92
2023-07-29T03:43:24.259Z,1.27
2023-07-29T03:45:51.938Z,1.20
2023-07-29T03:48:18.636Z,1.20
2023-07-29T03:50:45.260Z,1.27
2023-07-29T03:53:12.047Z,1.20
2023-07-29T03:55:38.726Z,2.13
2023-07-29T03:58:05.532Z,3.38
2023-07-29T04:00:32.240Z,1.70
2023-07-29T04:02:59.002Z,1.70
2023-07-29T04:05:27.156Z,1.30
2023-07-29T04:07:54.935Z,1.92
2023-07-29T04:10:23.203Z,1.58
2023-07-29T04:12:49.874Z,1.88
2023-07-29T04:15:16.589Z,1.63
2023-07-29T04:17:43.287Z,1.65
2023-07-29T04:20:11.141Z,2.25
2023-07-29T04:22:38.004Z,1.60
2023-07-29T04:25:05.725Z,1.15
2023-07-29T04:27:32.518Z,1.30
2023-07-29T04:29:59.232Z,1.52
2023-07-29T04:32:26.902Z,1.55
2023-07-29T04:34:53.607Z,1.50
2023-07-29T04:37:20.352Z,1.60
2023-07-29T04:39:47.817Z,1.23
2023-07-29T04:42:14.457Z,1.50
2023-07-29T04:44:43.014Z,2.03
2023-07-29T04:47:09.689Z,1.58
2023-07-29T04:49:36.970Z,1.67
2023-07-29T04:52:03.610Z,1.83
2023-07-29T04:54:30.566Z,1.83
2023-07-29T04:56:57.198Z,1.65
2023-07-29T04:59:24.604Z,1.40
2023-07-29T05:01:54.107Z,1.55
2023-07-29T05:04:21.993Z,1.20
2023-07-29T05:06:48.865Z,1.50
2023-07-29T05:09:19.882Z,1.55
2023-07-29T05:14:17.787Z,1.95
2023-07-29T05:16:44.954Z,2.45
2023-07-29T05:19:11.711Z,1.67
2023-07-29T05:21:39.500Z,1.45
2023-07-29T05:24:08.473Z,1.95
2023-07-29T05:26:35.531Z,2.03
2023-07-29T05:29:02.711Z,2.28
2023-07-29T05:31:30.711Z,1.45
2023-07-29T05:33:57.443Z,1.80
2023-07-29T05:36:24.145Z,3.05
2023-07-29T05:38:50.969Z,4.25
2023-07-29T05:41:17.706Z,3.85
2023-07-29T05:43:44.566Z,2.45
2023-07-29T05:46:11.664Z,3.35
2023-07-29T05:48:38.445Z,2.10
2023-07-29T05:51:07.951Z,2.58
2023-07-29T05:53:35.182Z,2.17
2023-07-29T05:56:02.063Z,1.83
2023-07-29T05:58:29.300Z,1.77
2023-07-29T06:00:55.978Z,1.80
2023-07-29T06:03:22.757Z,2.05
2023-07-29T06:05:53.753Z,2.65
2023-07-29T06:08:21.764Z,2.15
2023-07-29T06:10:48.412Z,2.10
2023-07-29T06:13:15.019Z,2.00
2023-07-29T06:15:42.813Z,2.80
2023-07-29T06:18:09.545Z,2.75
2023-07-29T06:20:36.162Z,2.38
2023-07-29T06:23:03.253Z,3.47
2023-07-29T06:25:29.928Z,2.75
2023-07-29T06:27:56.659Z,3.20
2023-07-29T06:30:23.258Z,3.22
2023-07-29T06:32:49.973Z,3.25
2023-07-29T06:35:16.672Z,3.20
2023-07-29T06:37:43.356Z,2.63
2023-07-29T06:40:10.259Z,2.88
2023-07-29T06:42:38.127Z,3.03
2023-07-29T06:45:06.378Z,3.15
2023-07-29T06:47:33.135Z,3.95
2023-07-29T06:50:03.444Z,1.85
2023-07-29T06:52:30.400Z,1.80
2023-07-29T06:54:57.037Z,2.33
2023-07-29T06:57:24.061Z,1.92
2023-07-29T06:59:50.705Z,3.60
2023-07-29T07:02:17.309Z,1.65
2023-07-29T07:04:44.001Z,2.10
2023-07-29T07:07:10.597Z,1.88
2023-07-29T07:09:37.196Z,1.70
2023-07-29T07:12:03.919Z,1.77
2023-07-29T07:14:30.536Z,1.95
2023-07-29T07:16:57.128Z,2.17
2023-07-29T07:19:23.892Z,1.77
2023-07-29T07:21:50.489Z,1.83
2023-07-29T07:24:17.138Z,1.65
2023-07-29T07:26:43.888Z,1.77
2023-07-29T07:29:10.510Z,1.42
2023-07-29T07:31:37.145Z,1.35
2023-07-29T07:34:04.024Z,1.85
2023-07-29T07:36:30.783Z,1.73
2023-07-29T07:38:57.627Z,1.48
2023-07-29T07:41:25.147Z,1.83
2023-07-29T07:43:51.919Z,1.33
2023-07-29T07:46:18.624Z,1.50
2023-07-29T07:48:45.282Z,1.73
2023-07-29T07:51:13.270Z,1.55
2023-07-29T07:53:40.128Z,2.05
2023-07-29T07:56:07.589Z,1.90
2023-07-29T07:58:34.836Z,2.03
2023-07-29T08:01:03.124Z,1.83
2023-07-29T08:03:30.158Z,2.92
2023-07-29T08:05:56.843Z,2.10
2023-07-29T08:08:23.706Z,1.90
2023-07-29T08:10:50.411Z,2.15
2023-07-29T08:13:17.101Z,1.65
2023-07-29T08:15:47.178Z,2.55
2023-07-29T08:18:13.821Z,1.90
2023-07-29T08:20:40.466Z,2.25
2023-07-29T08:23:07.113Z,2.40
2023-07-29T08:25:33.968Z,2.20
2023-07-29T08:28:00.693Z,2.42
2023-07-29T08:30:27.369Z,2.28
2023-07-29T08:32:54.453Z,3.70
2023-07-29T08:35:21.113Z,3.17
2023-07-29T08:37:47.716Z,2.92
2023-07-29T08:40:14.305Z,2.30
2023-07-29T08:42:43.491Z,2.30
2023-07-29T08:45:12.252Z,2.78
2023-07-29T08:47:39.042Z,1.90
2023-07-29T08:50:06.403Z,2.20
2023-07-29T08:52:33.315Z,2.45
2023-07-29T08:55:02.135Z,2.25
2023-07-29T08:57:29.040Z,2.85
2023-07-29T08:59:56.415Z,2.10
2023-07-29T09:02:23.112Z,2.25
2023-07-29T09:04:49.825Z,2.85
2023-07-29T09:07:17.272Z,2.90
2023-07-29T09:09:43.962Z,2.67
2023-07-29T09:12:12.372Z,2.25
2023-07-29T09:14:39.131Z,2.55
2023-07-29T09:17:09.005Z,2.85
2023-07-29T09:19:35.776Z,2.55
2023-07-29T09:22:02.366Z,2.80
2023-07-29T09:24:30.804Z,2.50
2023-07-29T09:26:57.405Z,2.50
2023-07-29T09:29:24.927Z,2.10
2023-07-29T09:31:51.663Z,2.00
2023-07-29T09:34:18.987Z,2.17
2023-07-29T09:36:45.577Z,1.90
2023-07-29T09:39:14.159Z,1.88
2023-07-29T09:41:41.016Z,2.38
2023-07-29T09:44:08.153Z,2.08
2023-07-29T09:46:37.346Z,2.55
2023-07-29T09:49:08.821Z,2.75
2023-07-29T09:51:40.520Z,2.53
2023-07-29T09:54:07.765Z,2.25
2023-07-29T09:56:34.971Z,2.90
2023-07-29T09:59:04.670Z,2.63
2023-07-29T10:01:32.861Z,2.00
2023-07-29T10:04:01.230Z,2.35
2023-07-29T10:06:28.958Z,2.60
2023-07-29T10:08:56.328Z,2.75
2023-07-29T10:11:23.228Z,2.55
2023-07-29T10:14:00.612Z,1.95
2023-07-29T10:16:33.746Z,2.47
2023-07-29T10:19:00.628Z,1.92
2023-07-29T10:21:27.300Z,2.17
2023-07-29T10:23:58.507Z,2.70
2023-07-29T10:26:25.614Z,2.60
2023-07-29T10:28:54.274Z,2.33
2023-07-29T10:31:21.886Z,3.05
2023-07-29T10:33:48.718Z,2.40
2023-07-29T10:36:16.667Z,3.45
2023-07-29T10:38:43.312Z,2.85
2023-07-29T10:41:09.931Z,2.58
2023-07-29T10:43:39.480Z,2.67
2023-07-29T10:46:19.358Z,2.05
2023-07-29T10:48:52.291Z,2.13
2023-07-29T10:51:36.210Z,2.40
2023-07-29T10:54:13.844Z,2.90
2023-07-29T10:56:49.538Z,2.58
2023-07-29T10:59:19.105Z,2.50
2023-07-29T11:01:59.873Z,2.95
2023-07-29T11:04:27.835Z,3.05
2023-07-29T11:07:10.970Z,2.30
2023-07-29T11:09:42.464Z,2.65
2023-07-29T11:12:48.632Z,2.75
2023-07-29T11:15:29.000Z,2.50
2023-07-29T11:18:04.828Z,3.13
2023-07-29T11:20:34.308Z,2.00
2023-07-29T11:23:02.841Z,2.35
2023-07-29T11:25:31.616Z,2.35
2023-07-29T11:27:59.483Z,1.98
2023-07-29T11:30:28.343Z,1.88
2023-07-29T11:32:56.580Z,1.75
2023-07-29T11:35:23.279Z,1.90
2023-07-29T11:37:51.860Z,1.77
2023-07-29T11:40:23.089Z,1.88
2023-07-29T11:42:51.774Z,2.15
2023-07-29T11:45:19.488Z,2.25
2023-07-29T11:47:46.960Z,2.15
2023-07-29T11:50:15.392Z,2.35
2023-07-29T11:52:43.703Z,2.47
2023-07-29T11:55:10.518Z,2.35
2023-07-29T11:57:38.647Z,2.00
2023-07-29T12:00:07.476Z,2.55
2023-07-29T12:02:39.310Z,2.25
2023-07-29T12:05:06.826Z,2.35
2023-07-29T12:07:36.813Z,2.58
2023-07-29T12:10:04.734Z,2.70
2023-07-29T12:12:31.405Z,2.63
2023-07-29T12:14:58.509Z,2.15
2023-07-29T12:17:25.711Z,2.72
2023-07-29T12:19:55.424Z,2.40
2023-07-29T12:22:22.095Z,2.50
2023-07-29T12:24:51.945Z,3.15
2023-07-29T12:27:18.532Z,2.90
2023-07-29T12:29:45.300Z,2.88
2023-07-29T12:32:11.984Z,3.13
2023-07-29T12:34:40.410Z,3.05
2023-07-29T12:37:08.118Z,2.92
2023-07-29T12:39:36.262Z,2.90
2023-07-29T12:42:04.296Z,2.33
2023-07-29T12:44:35.983Z,2.70
2023-07-29T12:47:04.083Z,2.85
2023-07-29T12:49:31.126Z,2.70
2023-07-29T12:51:58.684Z,3.30
2023-07-29T12:54:25.284Z,3.10
2023-07-29T12:56:52.435Z,2.80
2023-07-29T12:59:19.224Z,2.60
2023-07-29T13:01:45.893Z,2.83
2023-07-29T13:04:12.800Z,2.78
2023-07-29T13:06:39.732Z,2.63
2023-07-29T13:09:06.838Z,2.70
2023-07-29T13:11:33.961Z,2.25
2023-07-29T13:14:01.593Z,2.65
2023-07-29T13:16:29.414Z,2.15
2023-07-29T13:18:56.776Z,2.78
2023-07-29T13:21:24.084Z,3.08
2023-07-29T13:23:50.734Z,2.60
2023-07-29T13:26:17.565Z,2.80
2023-07-29T13:28:44.269Z,2.03
2023-07-29T13:31:11.047Z,2.75
2023-07-29T13:33:38.369Z,2.95
2023-07-29T13:36:06.280Z,2.17
2023-07-29T13:38:32.968Z,2.38
2023-07-29T13:40:59.874Z,2.70
2023-07-29T13:43:29.069Z,2.53
2023-07-29T13:45:55.807Z,2.38
2023-07-29T13:48:22.497Z,2.65
2023-07-29T13:50:49.163Z,2.88
2023-07-29T13:53:15.885Z,2.25
2023-07-29T13:55:42.770Z,2.78
2023-07-29T13:58:09.439Z,2.38
2023-07-29T14:00:36.048Z,2.42
2023-07-29T14:03:02.724Z,3.33
2023-07-29T14:05:29.459Z,2.97
2023-07-29T14:07:56.092Z,3.20
2023-07-29T14:10:22.718Z,2.33
2023-07-29T14:12:49.358Z,2.63
2023-07-29T14:15:16.035Z,2.80
2023-07-29T14:17:43.050Z,2.35
2023-07-29T14:20:10.210Z,2.65
2023-07-29T14:22:37.074Z,2.38
2023-07-29T14:25:03.938Z,2.53
2023-07-29T14:27:30.744Z,2.20
2023-07-29T14:29:57.347Z,2.13
2023-07-29T14:32:24.125Z,2.80
2023-07-29T14:34:51.126Z,2.65
2023-07-29T14:37:17.799Z,2.05
2023-07-29T14:39:44.600Z,2.85
2023-07-29T14:42:11.320Z,2.45
2023-07-29T14:44:37.956Z,2.53
2023-07-29T14:47:04.680Z,2.13
2023-07-29T14:49:31.291Z,2.30
2023-07-29T14:51:58.015Z,3.20
2023-07-29T14:54:24.677Z,2.33
2023-07-29T14:56:51.331Z,2.35
2023-07-29T14:59:17.960Z,2.63
2023-07-29T15:01:44.551Z,2.42
2023-07-29T15:04:11.161Z,2.50
2023-07-29T15:06:38.055Z,2.88
2023-07-29T15:09:04.955Z,2.40
2023-07-29T15:11:33.862Z,1.85
2023-07-29T15:14:00.998Z,1.95
2023-07-29T15:16:27.761Z,2.28
2023-07-29T15:18:54.439Z,2.08
2023-07-29T15:21:21.228Z,2.08
2023-07-29T15:23:47.915Z,2.50
2023-07-29T15:26:14.515Z,2.38
2023-07-29T15:28:41.189Z,2.30
2023-07-29T15:31:07.972Z,2.33
2023-07-29T15:33:35.567Z,2.42
2023-07-29T15:36:02.839Z,2.38
2023-07-29T15:38:29.505Z,2.58
2023-07-29T15:40:56.176Z,2.88
2023-07-29T15:43:23.744Z,3.58
2023-07-29T15:45:53.080Z,2.75
2023-07-29T15:48:19.905Z,2.42
2023-07-29T15:50:46.583Z,2.70
2023-07-29T15:53:13.177Z,2.47
2023-07-29T15:55:39.815Z,2.97
2023-07-29T15:58:06.541Z,2.65
2023-07-29T16:00:33.178Z,2.95
2023-07-29T16:02:59.881Z,2.55
2023-07-29T16:05:26.533Z,2.22
2023-07-29T16:07:54.482Z,2.70
2023-07-29T16:10:21.397Z,2.35
2023-07-29T16:12:47.977Z,2.33
2023-07-29T16:15:14.587Z,2.42
2023-07-29T16:17:41.535Z,2.63
2023-07-29T16:20:08.819Z,2.95
2023-07-29T16:22:35.781Z,2.60
2023-07-29T16:25:03.785Z,2.35
2023-07-29T16:27:32.872Z,2.53
2023-07-29T16:30:00.940Z,2.65
2023-07-29T16:32:27.818Z,2.75
2023-07-29T16:34:55.353Z,2.83
2023-07-29T16:37:22.472Z,2.67
2023-07-29T16:39:49.260Z,2.45
2023-07-29T16:42:16.011Z,2.30
2023-07-29T16:44:42.848Z,2.35
2023-07-29T16:47:09.616Z,2.88
2023-07-29T16:49:38.429Z,2.85
2023-07-29T16:52:05.934Z,2.53
2023-07-29T16:54:32.576Z,2.47
2023-07-29T16:56:59.198Z,2.53
2023-07-29T16:59:25.877Z,2.70
2023-07-29T17:01:52.734Z,2.10
2023-07-29T17:04:19.468Z,2.58
2023-07-29T17:06:46.096Z,1.95
2023-07-29T17:09:12.693Z,1.77
2023-07-29T17:11:39.324Z,2.22
2023-07-29T17:14:05.942Z,2.42
2023-07-29T17:16:32.623Z,2.60
2023-07-29T17:18:59.327Z,2.25
2023-07-29T17:21:26.025Z,2.10
2023-07-29T17:23:52.847Z,2.65
2023-07-29T17:26:19.605Z,3.10
2023-07-29T17:28:47.775Z,2.65
2023-07-29T17:31:14.623Z,2.30
2023-07-29T17:33:41.333Z,2.20
2023-07-29T17:36:07.933Z,2.70
2023-07-29T17:38:34.573Z,2.58
2023-07-29T17:41:03.267Z,2.85
2023-07-29T17:43:29.933Z,2.78
2023-07-29T17:45:56.629Z,3.08
2023-07-29T17:48:23.364Z,3.40
2023-07-29T17:50:50.045Z,3.25
2023-07-29T17:53:16.697Z,3.03
2023-07-29T17:55:43.922Z,3.20
2023-07-29T17:58:10.857Z,2.42
2023-07-29T18:00:37.665Z,3.17
2023-07-29T18:03:04.508Z,3.13
2023-07-29T18:05:31.327Z,2.35
2023-07-29T18:07:57.913Z,3.10
2023-07-29T18:10:25.574Z,2.85
2023-07-29T18:12:52.275Z,2.55
2023-07-29T18:15:18.991Z,2.40
2023-07-29T18:17:45.820Z,2.42
2023-07-29T18:20:12.615Z,2.80
2023-07-29T18:22:39.339Z,3.08
2023-07-29T18:25:06.748Z,2.78
2023-07-29T18:27:33.461Z,3.55
2023-07-29T18:30:00.169Z,2.97
2023-07-29T18:32:26.849Z,3.40
2023-07-29T18:34:53.513Z,2.50
2023-07-29T18:37:20.154Z,2.88
2023-07-29T18:39:46.878Z,4.20
2023-07-29T18:42:14.285Z,4.82
2023-07-29T18:44:40.930Z,4.38
2023-07-29T18:47:09.176Z,7.00
2023-07-29T18:49:36.043Z,3.63
2023-07-29T18:52:02.706Z,2.97
2023-07-29T18:54:32.370Z,2.70
2023-07-29T18:56:59.023Z,2.78
2023-07-29T18:59:28.599Z,3.50
2023-07-29T19:01:55.308Z,3.00
2023-07-29T19:04:22.291Z,2.78
2023-07-29T19:06:50.066Z,3.13
2023-07-29T19:09:17.128Z,3.80
2023-07-29T19:11:43.846Z,3.45
2023-07-29T19:14:10.458Z,2.92
2023-07-29T19:16:37.845Z,2.83
2023-07-29T19:19:04.984Z,2.75
2023-07-29T19:21:32.105Z,3.13
2023-07-29T19:23:58.801Z,2.80
2023-07-29T19:26:25.672Z,3.25
2023-07-29T19:28:52.382Z,2.83
2023-07-29T19:31:19.285Z,2.75
2023-07-29T19:33:46.079Z,2.97
2023-07-29T19:36:13.329Z,2.67
2023-07-29T19:38:40.298Z,2.25
2023-07-29T19:41:07.421Z,2.47
2023-07-29T19:43:34.073Z,2.72
2023-07-29T19:46:36.984Z,3.22
2023-07-29T19:48:55.882Z,3.13
2023-07-29T19:51:23.363Z,2.63
2023-07-29T19:53:50.926Z,2.65
2023-07-29T19:56:18.263Z,2.90
2023-07-29T19:58:49.296Z,3.30
2023-07-29T20:01:18.908Z,3.25
2023-07-29T20:03:45.661Z,2.80
2023-07-29T20:06:12.571Z,2.63
2023-07-29T20:08:39.253Z,2.75
2023-07-29T20:11:06.243Z,3.25
2023-07-29T20:13:32.850Z,2.90
2023-07-29T20:15:59.940Z,3.40
2023-07-29T20:18:26.587Z,3.53
2023-07-29T20:20:53.261Z,2.83
2023-07-29T20:23:19.906Z,2.78
2023-07-29T20:25:49.343Z,3.38
2023-07-29T20:28:16.191Z,3.20
2023-07-29T20:30:44.021Z,3.08
2023-07-29T20:33:10.699Z,2.92
2023-07-29T20:35:37.413Z,3.40
2023-07-29T20:38:04.011Z,3.00
2023-07-29T20:40:30.666Z,3.80
2023-07-29T20:42:57.284Z,3.38
2023-07-29T20:45:24.279Z,3.33
2023-07-29T20:47:50.937Z,3.35
2023-07-29T20:50:17.669Z,3.83
2023-07-29T20:52:44.372Z,2.92
2023-07-29T20:55:11.013Z,3.00
2023-07-29T20:57:37.677Z,2.72
2023-07-29T21:00:05.168Z,3.75
2023-07-29T21:02:31.896Z,2.75
2023-07-29T21:04:58.559Z,3.05
2023-07-29T21:07:25.155Z,3.38
2023-07-29T21:09:51.740Z,3.45
2023-07-29T21:12:18.617Z,3.38
2023-07-29T21:14:45.279Z,3.72
2023-07-29T21:17:12.144Z,3.45
2023-07-29T21:19:39.696Z,3.33
2023-07-29T21:22:07.888Z,3.30
2023-07-29T21:24:34.556Z,3.53
2023-07-29T21:27:01.208Z,3.42
2023-07-29T21:29:27.829Z,3.75
2023-07-29T21:31:54.442Z,3.70
2023-07-29T21:34:21.063Z,3.20
2023-07-29T21:36:47.806Z,2.95
2023-07-29T21:39:14.812Z,4.30
2023-07-29T21:41:41.476Z,3.90
2023-07-29T21:44:08.183Z,3.58
2023-07-29T21:46:34.942Z,3.10
2023-07-29T21:49:01.591Z,3.72
2023-07-29T21:51:28.236Z,3.83
2023-07-29T21:53:54.861Z,3.83
2023-07-29T21:56:21.460Z,2.83
2023-07-29T21:58:48.086Z,3.85
2023-07-29T22:01:14.774Z,3.72
2023-07-29T22:03:41.467Z,3.80
2023-07-29T22:06:08.231Z,3.53
2023-07-29T22:08:35.149Z,3.22
2023-07-29T22:11:03.349Z,3.72
2023-07-29T22:13:30.078Z,4.00
2023-07-29T22:15:56.709Z,3.30
2023-07-29T22:18:23.328Z,3.28
2023-07-29T22:20:56.780Z,3.25
2023-07-29T22:23:23.690Z,3.40
2023-07-29T22:25:57.095Z,2.65
2023-07-29T22:28:24.022Z,3.30
2023-07-29T22:30:53.067Z,3.35
2023-07-29T22:33:19.956Z,3.10
2023-07-29T22:35:46.625Z,3.05
2023-07-29T22:38:13.256Z,3.10
2023-07-29T22:40:40.076Z,3.22
2023-07-29T22:43:06.737Z,2.90
2023-07-29T22:45:33.496Z,3.65
2023-07-29T22:48:00.131Z,4.10
2023-07-29T22:50:26.987Z,3.05
2023-07-29T22:52:53.680Z,2.45
2023-07-29T22:55:20.279Z,3.47
2023-07-29T22:57:46.877Z,3.50
2023-07-29T23:00:13.946Z,3.42
2023-07-29T23:02:40.751Z,2.97
2023-07-29T23:05:07.619Z,3.25
2023-07-29T23:07:34.246Z,3.65
2023-07-29T23:10:00.914Z,3.35
2023-07-29T23:12:28.628Z,3.60
2023-07-29T23:14:55.247Z,3.47
2023-07-29T23:17:22.094Z,4.10
2023-07-29T23:19:48.748Z,3.33
2023-07-29T23:22:15.370Z,2.47
2023-07-29T23:24:41.979Z,2.47
2023-07-29T23:27:08.686Z,2.63
2023-07-29T23:29:35.327Z,2.50
2023-07-29T23:32:03.433Z,2.85
2023-07-29T23:34:30.107Z,2.90
2023-07-29T23:36:56.754Z,2.67
2023-07-29T23:39:23.828Z,3.08
2023-07-29T23:41:50.587Z,2.22
2023-07-29T23:44:17.294Z,2.78
2023-07-29T23:46:43.916Z,2.63
2023-07-29T23:49:10.593Z,2.92
2023-07-29T23:51:37.498Z,2.40
2023-07-29T23:54:04.315Z,3.10
2023-07-29T23:56:30.944Z,2.95
2023-07-29T23:58:57.545Z,2.47
